Time;durP1;ratioP1;P1;durP2;ratioP2;P2;SDS_P1;SDS_P2;PMS_P1;PMS_P2;Temp;Humidity;BMP_temperature;BMP_pressure;BME280_temperature;BME280_humidity;BME280_pressure;Samples;Min_cycle;Max_cycle;Signal;HPM_P1;HPM_P2
2022/07/06 00:01:51;;;;;;;251.43;153.95;;;;;;;;;;5012745;28;20205;-50
2022/07/06 00:04:17;;;;;;;259.02;158.82;;;;;;;;;;5012708;28;20225;-50
2022/07/06 00:06:43;;;;;;;277.40;171.50;;;;;;;;;;5012428;28;20295;-50
2022/07/06 00:09:09;;;;;;;257.08;159.10;;;;;;;;;;5013150;28;20204;-50
2022/07/06 00:11:35;;;;;;;252.43;153.48;;;;;;;;;;5012968;28;20180;-50
2022/07/06 00:14:01;;;;;;;232.48;148.75;;;;;;;;;;5012410;28;20208;-50
2022/07/06 00:16:28;;;;;;;252.35;158.77;;;;;;;;;;5012824;28;20216;-50
2022/07/06 00:18:54;;;;;;;244.23;153.60;;;;;;;;;;5012634;28;20580;-50
2022/07/06 00:21:20;;;;;;;242.05;152.15;;;;;;;;;;5012842;28;20217;-50
2022/07/06 00:23:46;;;;;;;254.43;155.43;;;;;;;;;;5013397;28;20207;-50
2022/07/06 00:26:11;;;;;;;212.70;141.48;;;;;;;;;;5012431;28;20237;-50
2022/07/06 00:28:37;;;;;;;182.85;132.50;;;;;;;;;;5012262;28;20217;-50
2022/07/06 00:31:05;;;;;;;204.43;134.80;;;;;;;;;;5012356;28;20272;-50
2022/07/06 00:33:31;;;;;;;195.05;132.23;;;;;;;;;;5012203;28;20239;-50
2022/07/06 00:35:57;;;;;;;178.63;130.23;;;;;;;;;;5000326;28;20642;-50
2022/07/06 00:38:23;;;;;;;150.00;121.30;;;;;;;;;;4992874;28;20710;-50
2022/07/06 00:40:49;;;;;;;171.63;126.88;;;;;;;;;;4992767;28;20248;-50
2022/07/06 00:43:15;;;;;;;177.35;126.45;;;;;;;;;;4992474;28;20221;-50
2022/07/06 00:45:41;;;;;;;174.57;128.50;;;;;;;;;;4992859;28;20713;-50
2022/07/06 00:48:07;;;;;;;183.52;129.40;;;;;;;;;;4992508;28;20692;-50
2022/07/06 00:50:34;;;;;;;180.63;130.48;;;;;;;;;;4992933;28;20185;-50
2022/07/06 00:53:01;;;;;;;178.05;125.97;;;;;;;;;;4992477;28;20255;-50
2022/07/06 00:55:29;;;;;;;164.57;120.95;;;;;;;;;;4992453;28;20221;-50
2022/07/06 00:57:55;;;;;;;155.82;119.45;;;;;;;;;;4992233;28;20228;-50
2022/07/06 01:00:23;;;;;;;162.55;121.82;;;;;;;;;;4992374;28;20295;-50
2022/07/06 01:02:49;;;;;;;182.77;131.95;;;;;;;;;;4992625;28;20188;-50
2022/07/06 01:05:16;;;;;;;174.07;126.68;;;;;;;;;;4992195;28;20221;-49
2022/07/06 01:07:43;;;;;;;156.20;123.95;;;;;;;;;;4992158;28;20214;-50
2022/07/06 01:10:10;;;;;;;138.68;115.45;;;;;;;;;;4992292;28;20690;-50
2022/07/06 01:12:36;;;;;;;115.25;103.35;;;;;;;;;;4990418;28;20308;-50
2022/07/06 01:15:04;;;;;;;134.10;111.53;;;;;;;;;;4992036;28;20276;-50
2022/07/06 01:17:30;;;;;;;119.35;102.68;;;;;;;;;;4992046;28;20284;-50
2022/07/06 01:19:56;;;;;;;114.95;101.90;;;;;;;;;;4991811;28;20217;-50
2022/07/06 01:22:22;;;;;;;112.45;100.63;;;;;;;;;;4990954;28;20599;-50
2022/07/06 01:24:48;;;;;;;107.07;95.57;;;;;;;;;;4991739;28;20598;-50
2022/07/06 01:27:14;;;;;;;119.80;102.07;;;;;;;;;;4991542;28;20575;-50
2022/07/06 01:29:40;;;;;;;119.30;99.45;;;;;;;;;;4992109;28;20189;-50
2022/07/06 01:32:06;;;;;;;110.22;95.32;;;;;;;;;;4991613;28;20221;-50
2022/07/06 01:34:32;;;;;;;115.43;98.63;;;;;;;;;;5011052;28;20227;-50
2022/07/06 01:36:58;;;;;;;125.30;107.68;;;;;;;;;;5009761;28;20216;-50
2022/07/06 01:39:24;;;;;;;112.47;100.32;;;;;;;;;;5011311;28;20220;-51
2022/07/06 01:41:50;;;;;;;113.60;100.07;;;;;;;;;;5011819;28;20900;-50
2022/07/06 01:44:16;;;;;;;113.93;98.88;;;;;;;;;;5010864;28;20316;-50
2022/07/06 01:46:42;;;;;;;114.40;97.20;;;;;;;;;;5011133;28;20216;-50
2022/07/06 01:49:08;;;;;;;113.88;99.47;;;;;;;;;;5010624;28;20227;-50
2022/07/06 01:51:34;;;;;;;112.22;97.97;;;;;;;;;;5011179;28;20209;-50
2022/07/06 01:54:00;;;;;;;130.35;100.95;;;;;;;;;;5010919;28;20180;-50
2022/07/06 01:56:26;;;;;;;100.10;90.68;;;;;;;;;;5011524;28;20208;-50
2022/07/06 01:58:52;;;;;;;100.38;89.80;;;;;;;;;;5010775;28;20299;-50
2022/07/06 02:01:20;;;;;;;97.07;87.40;;;;;;;;;;5011075;28;20632;-50
2022/07/06 02:03:47;;;;;;;107.50;91.35;;;;;;;;;;5010698;28;20255;-50
2022/07/06 02:06:13;;;;;;;98.15;87.95;;;;;;;;;;5010962;28;20188;-50
2022/07/06 02:08:39;;;;;;;98.60;88.20;;;;;;;;;;5011672;28;20169;-51
2022/07/06 02:11:09;;;;;;;98.50;88.28;;;;;;;;;;5010840;28;20212;-50
2022/07/06 02:13:35;;;;;;;100.78;88.93;;;;;;;;;;5010212;28;20224;-50
2022/07/06 02:16:02;;;;;;;102.75;91.95;;;;;;;;;;5010830;28;20235;-50
2022/07/06 02:18:27;;;;;;;99.93;90.03;;;;;;;;;;5010482;28;20223;-50
2022/07/06 02:20:53;;;;;;;105.90;88.93;;;;;;;;;;5011315;28;20181;-50
2022/07/06 02:23:19;;;;;;;90.28;80.97;;;;;;;;;;5010693;28;20225;-50
2022/07/06 02:25:45;;;;;;;99.05;88.72;;;;;;;;;;5010511;28;20303;-50
2022/07/06 02:28:11;;;;;;;88.80;81.25;;;;;;;;;;5010580;28;20213;-50
2022/07/06 02:30:37;;;;;;;102.43;92.03;;;;;;;;;;5010486;28;20223;-50
2022/07/06 02:33:03;;;;;;;97.75;88.32;;;;;;;;;;5010906;28;20197;-50
2022/07/06 02:35:29;;;;;;;101.05;90.47;;;;;;;;;;5015003;28;20181;-50
2022/07/06 02:37:55;;;;;;;102.78;91.07;;;;;;;;;;5014418;28;20271;-50
2022/07/06 02:40:21;;;;;;;90.82;81.90;;;;;;;;;;5014659;28;20612;-50
2022/07/06 02:42:47;;;;;;;82.97;76.13;;;;;;;;;;5014336;28;20933;-50
2022/07/06 02:45:13;;;;;;;94.05;84.85;;;;;;;;;;5014969;28;20223;-50
2022/07/06 02:47:39;;;;;;;100.32;89.53;;;;;;;;;;5013831;28;20702;-50
2022/07/06 02:50:05;;;;;;;92.05;82.28;;;;;;;;;;5014477;28;20220;-50
2022/07/06 02:52:31;;;;;;;91.32;82.43;;;;;;;;;;5014328;28;20212;-50
2022/07/06 02:54:57;;;;;;;85.43;76.88;;;;;;;;;;5014163;28;20231;-50
2022/07/06 02:57:23;;;;;;;95.07;82.65;;;;;;;;;;5014004;28;20220;-50
2022/07/06 02:59:49;;;;;;;85.43;76.35;;;;;;;;;;5014924;28;20680;-50
2022/07/06 03:02:18;;;;;;;89.95;80.00;;;;;;;;;;5013743;28;20213;-50
2022/07/06 03:04:44;;;;;;;90.00;80.95;;;;;;;;;;5012842;28;20228;-50
2022/07/06 03:07:10;;;;;;;112.43;100.03;;;;;;;;;;5013788;28;20279;-50
2022/07/06 03:09:36;;;;;;;95.00;86.47;;;;;;;;;;5013956;28;20736;-50
2022/07/06 03:12:02;;;;;;;105.10;92.13;;;;;;;;;;5014799;28;20552;-50
2022/07/06 03:14:28;;;;;;;109.88;97.88;;;;;;;;;;5013803;28;20628;-50
2022/07/06 03:16:54;;;;;;;105.55;94.68;;;;;;;;;;5013791;28;20321;-50
2022/07/06 03:19:20;;;;;;;139.18;106.55;;;;;;;;;;5013503;28;20217;-50
2022/07/06 03:21:46;;;;;;;113.57;98.00;;;;;;;;;;5013754;28;20213;-51
2022/07/06 03:24:12;;;;;;;147.35;113.70;;;;;;;;;;5014377;28;20196;-50
2022/07/06 03:26:38;;;;;;;127.93;109.22;;;;;;;;;;5013668;28;20279;-50
2022/07/06 03:29:04;;;;;;;110.43;99.53;;;;;;;;;;5013765;28;20307;-50
2022/07/06 03:31:30;;;;;;;103.43;92.18;;;;;;;;;;5013556;28;20232;-50
2022/07/06 03:33:56;;;;;;;99.38;89.63;;;;;;;;;;5013590;28;20212;-50
2022/07/06 03:36:22;;;;;;;116.50;98.13;;;;;;;;;;5013187;28;20804;-50
2022/07/06 03:38:48;;;;;;;96.60;87.03;;;;;;;;;;5014014;28;20248;-50
2022/07/06 03:41:14;;;;;;;97.82;88.18;;;;;;;;;;5013341;28;20228;-50
2022/07/06 03:43:40;;;;;;;102.88;91.85;;;;;;;;;;5011489;28;20217;-50
2022/07/06 03:46:06;;;;;;;94.88;85.35;;;;;;;;;;5011874;28;20244;-50
2022/07/06 03:48:32;;;;;;;91.47;83.57;;;;;;;;;;5012801;28;20204;-51
2022/07/06 03:50:58;;;;;;;97.25;86.45;;;;;;;;;;5013488;28;20174;-50
2022/07/06 03:53:24;;;;;;;95.30;85.88;;;;;;;;;;5013195;28;20215;-50
2022/07/06 03:58:37;;;;;;;94.13;84.78;;;;;;;;;;5012821;28;20550;-50
2022/07/06 04:01:03;;;;;;;95.22;85.90;;;;;;;;;;5012777;28;20220;-50
2022/07/06 04:03:29;;;;;;;92.68;83.20;;;;;;;;;;5012806;28;20224;-51
2022/07/06 04:05:55;;;;;;;107.00;92.05;;;;;;;;;;5012760;28;20223;-50
2022/07/06 04:08:21;;;;;;;94.22;84.97;;;;;;;;;;5012843;28;20220;-50
2022/07/06 04:10:47;;;;;;;86.57;79.72;;;;;;;;;;5012948;28;20297;-50
2022/07/06 04:13:13;;;;;;;90.78;81.85;;;;;;;;;;5012425;28;20223;-50
2022/07/06 04:15:39;;;;;;;102.97;90.65;;;;;;;;;;5012614;28;20209;-50
2022/07/06 04:18:05;;;;;;;106.05;94.78;;;;;;;;;;5012084;28;20169;-51
2022/07/06 04:20:31;;;;;;;95.65;84.75;;;;;;;;;;5012913;28;20181;-50
2022/07/06 04:22:57;;;;;;;96.15;85.70;;;;;;;;;;5011113;28;20201;-50
2022/07/06 04:25:23;;;;;;;98.60;88.60;;;;;;;;;;5012253;28;20229;-50
2022/07/06 04:27:49;;;;;;;94.22;84.55;;;;;;;;;;5012091;28;20335;-50
2022/07/06 04:30:15;;;;;;;93.75;83.40;;;;;;;;;;5012011;28;20673;-50
2022/07/06 04:32:41;;;;;;;100.35;83.10;;;;;;;;;;5012548;28;20180;-50
2022/07/06 04:35:07;;;;;;;126.05;99.65;;;;;;;;;;5012398;28;20569;-50
2022/07/06 04:37:33;;;;;;;130.93;104.18;;;;;;;;;;5011924;28;20225;-50
2022/07/06 04:39:59;;;;;;;127.50;102.13;;;;;;;;;;5012284;28;20559;-50
2022/07/06 04:42:25;;;;;;;143.30;107.95;;;;;;;;;;5015584;28;20303;-50
2022/07/06 04:44:51;;;;;;;116.22;98.20;;;;;;;;;;5032389;28;20200;-50
2022/07/06 04:47:17;;;;;;;155.70;120.00;;;;;;;;;;5031257;28;20230;-50
2022/07/06 04:49:44;;;;;;;121.07;108.03;;;;;;;;;;5031527;28;20242;-50
2022/07/06 04:52:10;;;;;;;134.45;110.50;;;;;;;;;;5031436;28;20313;-50
2022/07/06 04:54:36;;;;;;;131.02;110.18;;;;;;;;;;5011879;28;20297;-50
2022/07/06 04:57:02;;;;;;;118.93;99.32;;;;;;;;;;5011740;28;20207;-50
2022/07/06 04:59:28;;;;;;;114.90;101.70;;;;;;;;;;5011675;28;20682;-50
2022/07/06 05:01:54;;;;;;;119.82;100.38;;;;;;;;;;5011814;28;20585;-50
2022/07/06 05:04:19;;;;;;;135.50;110.07;;;;;;;;;;5011317;28;20717;-50
2022/07/06 05:06:46;;;;;;;136.13;104.22;;;;;;;;;;5011183;28;20221;-50
2022/07/06 05:09:12;;;;;;;117.97;100.22;;;;;;;;;;5011767;28;20168;-50
2022/07/06 05:11:38;;;;;;;115.05;98.05;;;;;;;;;;5012145;28;20204;-50
2022/07/06 05:14:04;;;;;;;114.43;101.78;;;;;;;;;;5011354;28;20212;-50
2022/07/06 05:16:30;;;;;;;120.38;102.00;;;;;;;;;;5011392;28;20575;-50
2022/07/06 05:18:56;;;;;;;117.30;98.70;;;;;;;;;;5011237;28;20242;-50
2022/07/06 05:21:22;;;;;;;136.55;109.28;;;;;;;;;;5011374;28;20217;-50
2022/07/06 05:23:48;;;;;;;111.63;98.65;;;;;;;;;;5011760;28;20673;-50
2022/07/06 05:26:14;;;;;;;106.70;96.28;;;;;;;;;;5011541;28;20716;-50
2022/07/06 05:28:40;;;;;;;125.55;107.78;;;;;;;;;;5010915;28;20228;-51
2022/07/06 05:31:06;;;;;;;140.05;110.95;;;;;;;;;;5010785;28;20236;-50
2022/07/06 05:33:32;;;;;;;118.15;103.30;;;;;;;;;;5010925;28;20212;-50
2022/07/06 05:35:58;;;;;;;115.38;102.95;;;;;;;;;;5010044;28;20201;-50
2022/07/06 05:38:24;;;;;;;120.27;105.63;;;;;;;;;;5011177;28;20301;-50
2022/07/06 05:40:50;;;;;;;119.60;106.00;;;;;;;;;;5011098;28;20279;-50
2022/07/06 05:43:17;;;;;;;117.47;103.07;;;;;;;;;;5010578;28;20224;-50
2022/07/06 05:45:43;;;;;;;113.38;101.22;;;;;;;;;;5010860;28;20259;-50
2022/07/06 05:50:54;;;;;;;145.65;110.95;;;;;;;;;;5011641;28;20554;-53
2022/07/06 05:53:19;;;;;;;138.63;110.30;;;;;;;;;;5010749;28;20220;-53
2022/07/06 05:55:46;;;;;;;122.80;105.82;;;;;;;;;;5010930;28;20264;-53
2022/07/06 05:58:12;;;;;;;120.18;104.10;;;;;;;;;;5010883;28;20267;-53
2022/07/06 06:00:38;;;;;;;151.32;114.32;;;;;;;;;;5008877;28;20685;-51
2022/07/06 06:03:04;;;;;;;120.45;105.53;;;;;;;;;;5009773;28;20180;-52
2022/07/06 06:05:30;;;;;;;132.27;102.43;;;;;;;;;;5011002;28;20215;-52
2022/07/06 06:07:56;;;;;;;149.05;113.88;;;;;;;;;;5009682;28;20217;-52
2022/07/06 06:10:23;;;;;;;188.52;119.82;;;;;;;;;;4993227;28;20205;-54
2022/07/06 06:12:49;;;;;;;263.20;127.65;;;;;;;;;;4989203;28;20795;-54
2022/07/06 06:15:14;;;;;;;194.75;111.25;;;;;;;;;;4975784;28;20201;-54
2022/07/06 06:17:41;;;;;;;186.13;124.30;;;;;;;;;;4978240;28;20324;-51
2022/07/06 06:20:08;;;;;;;192.80;120.75;;;;;;;;;;4982096;28;20225;-51
2022/07/06 06:22:50;;;;;;;159.60;105.07;;;;;;;;;;4988853;28;20243;-51
2022/07/06 06:25:17;;;;;;;145.48;100.63;;;;;;;;;;4988159;28;20567;-51
2022/07/06 06:27:43;;;;;;;185.48;113.32;;;;;;;;;;4988623;28;20342;-51
2022/07/06 06:30:09;;;;;;;204.93;121.03;;;;;;;;;;5004396;28;20205;-51
2022/07/06 06:32:35;;;;;;;248.93;133.88;;;;;;;;;;4978803;28;20727;-54
2022/07/06 06:35:01;;;;;;;225.45;134.73;;;;;;;;;;4982348;28;20213;-54
2022/07/06 06:37:27;;;;;;;217.23;137.73;;;;;;;;;;4986780;28;20213;-54
2022/07/06 06:39:53;;;;;;;202.98;128.63;;;;;;;;;;4978465;28;20272;-54
2022/07/06 06:42:19;;;;;;;261.65;146.38;;;;;;;;;;4983566;28;20189;-54
2022/07/06 06:44:45;;;;;;;137.07;117.28;;;;;;;;;;4988251;28;20209;-54
2022/07/06 06:47:11;;;;;;;220.95;138.05;;;;;;;;;;4977766;28;20574;-54
2022/07/06 06:49:37;;;;;;;152.55;111.55;;;;;;;;;;4994504;28;20414;-55
2022/07/06 06:52:03;;;;;;;219.32;131.35;;;;;;;;;;4988052;28;20319;-54
2022/07/06 06:54:29;;;;;;;136.95;101.72;;;;;;;;;;4983613;28;20214;-53
2022/07/06 06:56:54;;;;;;;145.73;106.72;;;;;;;;;;4989679;28;20666;-53
2022/07/06 06:59:20;;;;;;;421.50;193.43;;;;;;;;;;4983990;28;20707;-55
2022/07/06 07:01:47;;;;;;;172.98;115.10;;;;;;;;;;4984937;28;20661;-55
2022/07/06 07:04:13;;;;;;;135.52;104.78;;;;;;;;;;4989143;28;20721;-55
2022/07/06 07:06:38;;;;;;;146.95;108.00;;;;;;;;;;4988626;28;20229;-55
2022/07/06 07:09:04;;;;;;;233.85;121.18;;;;;;;;;;4975286;28;20657;-55
2022/07/06 07:11:31;;;;;;;203.50;108.07;;;;;;;;;;4988862;28;20849;-55
2022/07/06 07:13:57;;;;;;;331.48;142.55;;;;;;;;;;4978443;28;20271;-55
2022/07/06 07:16:24;;;;;;;273.35;126.47;;;;;;;;;;4981147;28;20236;-56
2022/07/06 07:18:50;;;;;;;154.38;102.70;;;;;;;;;;4979063;28;20243;-55
2022/07/06 07:21:16;;;;;;;115.82;95.65;;;;;;;;;;4992289;28;20199;-55
2022/07/06 07:23:42;;;;;;;220.07;121.50;;;;;;;;;;4975067;28;20843;-55
2022/07/06 07:26:08;;;;;;;254.00;137.85;;;;;;;;;;4975808;28;20306;-55
2022/07/06 07:28:34;;;;;;;152.90;104.53;;;;;;;;;;4993668;28;20217;-55
2022/07/06 07:31:00;;;;;;;213.30;125.00;;;;;;;;;;4987258;28;20209;-55
2022/07/06 07:33:26;;;;;;;202.25;122.18;;;;;;;;;;4979357;28;20221;-55
2022/07/06 07:35:52;;;;;;;131.68;98.32;;;;;;;;;;4978055;28;20527;-55
2022/07/06 07:38:18;;;;;;;229.35;129.70;;;;;;;;;;4978924;28;20217;-55
2022/07/06 07:40:44;;;;;;;202.23;114.78;;;;;;;;;;4987877;28;20223;-55
2022/07/06 07:43:09;;;;;;;155.20;103.25;;;;;;;;;;4992960;28;20292;-55
2022/07/06 07:45:35;;;;;;;289.10;141.10;;;;;;;;;;4974286;28;20803;-55
2022/07/06 07:48:01;;;;;;;220.77;135.25;;;;;;;;;;4984938;28;20182;-55
2022/07/06 07:50:29;;;;;;;196.23;118.68;;;;;;;;;;4989977;28;20214;-55
2022/07/06 07:52:55;;;;;;;228.93;132.18;;;;;;;;;;4983595;28;20230;-55
2022/07/06 07:55:21;;;;;;;211.65;130.65;;;;;;;;;;4988915;28;20220;-55
2022/07/06 07:57:47;;;;;;;169.98;117.60;;;;;;;;;;4988745;28;20236;-55
2022/07/06 08:00:13;;;;;;;124.70;106.55;;;;;;;;;;4990781;28;20253;-55
2022/07/06 08:02:39;;;;;;;262.15;152.63;;;;;;;;;;4981737;28;20203;-55
2022/07/06 08:05:05;;;;;;;253.13;148.00;;;;;;;;;;4987687;28;20220;-55
2022/07/06 08:07:31;;;;;;;201.82;131.23;;;;;;;;;;4988924;28;20589;-55
2022/07/06 08:09:57;;;;;;;187.55;126.78;;;;;;;;;;4978879;28;20205;-55
2022/07/06 08:12:23;;;;;;;178.40;137.35;;;;;;;;;;4984090;28;20221;-55
2022/07/06 08:14:49;;;;;;;226.50;156.23;;;;;;;;;;4981047;28;20185;-55
2022/07/06 08:17:15;;;;;;;316.75;172.60;;;;;;;;;;4983356;28;20221;-55
2022/07/06 08:19:41;;;;;;;173.65;126.07;;;;;;;;;;4991963;28;20312;-55
2022/07/06 08:22:08;;;;;;;252.35;158.38;;;;;;;;;;4990133;28;20566;-55
2022/07/06 08:24:36;;;;;;;151.02;128.10;;;;;;;;;;4987984;28;20661;-55
2022/07/06 08:27:03;;;;;;;150.18;128.30;;;;;;;;;;4986784;28;20197;-55
2022/07/06 08:29:29;;;;;;;188.30;131.32;;;;;;;;;;5008744;28;20322;-55
2022/07/06 08:31:55;;;;;;;150.48;118.43;;;;;;;;;;4990782;28;20252;-55
2022/07/06 08:34:21;;;;;;;193.57;138.77;;;;;;;;;;4990802;28;20221;-55
2022/07/06 08:36:47;;;;;;;165.80;122.63;;;;;;;;;;4982362;28;20236;-55
2022/07/06 08:39:13;;;;;;;177.88;130.00;;;;;;;;;;4988010;28;20647;-55
2022/07/06 08:41:41;;;;;;;196.40;136.80;;;;;;;;;;4994182;28;20203;-55
2022/07/06 08:44:09;;;;;;;193.05;134.98;;;;;;;;;;4993869;28;20240;-55
2022/07/06 08:46:35;;;;;;;182.10;133.05;;;;;;;;;;4996292;28;20208;-55
2022/07/06 08:49:02;;;;;;;266.20;144.85;;;;;;;;;;4975225;28;20244;-55
2022/07/06 08:51:27;;;;;;;290.20;165.13;;;;;;;;;;4964755;28;20728;-55
2022/07/06 08:53:54;;;;;;;338.77;171.25;;;;;;;;;;4978469;28;20186;-55
2022/07/06 08:56:20;;;;;;;215.38;140.82;;;;;;;;;;4995307;28;20248;-55
2022/07/06 08:58:46;;;;;;;133.50;115.40;;;;;;;;;;4990090;28;20279;-55
2022/07/06 09:01:12;;;;;;;170.48;122.65;;;;;;;;;;4987373;28;20228;-55
2022/07/06 09:03:42;;;;;;;160.32;125.13;;;;;;;;;;4991571;28;20681;-54
2022/07/06 09:06:08;;;;;;;210.52;140.05;;;;;;;;;;4993079;28;20209;-54
2022/07/06 09:08:36;;;;;;;213.90;142.65;;;;;;;;;;4987995;28;20591;-55
2022/07/06 09:11:02;;;;;;;172.30;128.75;;;;;;;;;;4988585;28;20212;-55
2022/07/06 09:13:28;;;;;;;208.55;139.88;;;;;;;;;;4985598;28;20224;-55
2022/07/06 09:15:54;;;;;;;272.83;169.13;;;;;;;;;;4979641;28;20224;-55
2022/07/06 09:18:22;;;;;;;239.38;152.55;;;;;;;;;;4975572;28;20718;-55
2022/07/06 09:20:47;;;;;;;299.23;178.38;;;;;;;;;;4976998;28;20181;-55
2022/07/06 09:23:16;;;;;;;265.50;161.48;;;;;;;;;;4978967;28;20755;-55
2022/07/06 09:25:42;;;;;;;293.05;173.57;;;;;;;;;;4977919;28;20217;-55
2022/07/06 09:28:08;;;;;;;185.52;141.02;;;;;;;;;;4984475;28;20209;-55
2022/07/06 09:30:34;;;;;;;218.75;149.15;;;;;;;;;;4977902;28;20546;-55
2022/07/06 09:33:00;;;;;;;165.98;131.15;;;;;;;;;;4981481;28;20181;-55
2022/07/06 09:35:28;;;;;;;227.98;145.75;;;;;;;;;;4992188;28;20317;-55
2022/07/06 09:38:01;;;;;;;181.75;132.23;;;;;;;;;;4992233;28;20216;-55
2022/07/06 09:40:28;;;;;;;171.52;128.27;;;;;;;;;;4993212;28;20220;-55
2022/07/06 09:43:08;;;;;;;145.88;123.40;;;;;;;;;;4986849;28;20217;-55
2022/07/06 09:45:35;;;;;;;175.90;133.65;;;;;;;;;;4982830;28;20212;-55
2022/07/06 09:48:15;;;;;;;174.02;129.40;;;;;;;;;;4994363;28;20320;-55
2022/07/06 09:50:44;;;;;;;237.10;161.60;;;;;;;;;;4989148;28;20184;-56
2022/07/06 09:53:11;;;;;;;242.02;160.18;;;;;;;;;;4978473;28;20258;-55
2022/07/06 09:55:37;;;;;;;193.05;147.65;;;;;;;;;;4990844;28;20433;-54
2022/07/06 09:58:03;;;;;;;212.00;151.85;;;;;;;;;;4985552;28;20347;-54
2022/07/06 10:00:29;;;;;;;229.95;156.50;;;;;;;;;;4983940;28;20217;-56
2022/07/06 10:02:55;;;;;;;231.88;166.57;;;;;;;;;;4980455;28;20550;-55
2022/07/06 10:05:29;;;;;;;257.83;173.10;;;;;;;;;;4978268;28;20621;-55
2022/07/06 10:07:56;;;;;;;149.88;133.15;;;;;;;;;;4965997;28;20287;-55
2022/07/06 10:10:24;;;;;;;241.10;162.70;;;;;;;;;;4981211;28;20213;-55
2022/07/06 10:12:50;;;;;;;237.35;163.43;;;;;;;;;;4985480;28;20292;-55
2022/07/06 10:15:18;;;;;;;379.05;205.73;;;;;;;;;;4973926;28;20189;-56
2022/07/06 10:17:44;;;;;;;212.30;152.60;;;;;;;;;;4974172;28;20215;-55
2022/07/06 10:20:11;;;;;;;223.52;159.07;;;;;;;;;;4979647;28;20681;-55
2022/07/06 10:22:39;;;;;;;261.23;168.98;;;;;;;;;;4980047;28;20534;-55
2022/07/06 10:25:06;;;;;;;300.92;184.07;;;;;;;;;;4973021;28;20232;-55
2022/07/06 10:27:33;;;;;;;317.05;174.13;;;;;;;;;;4962438;28;20220;-55
2022/07/06 10:29:59;;;;;;;205.77;143.48;;;;;;;;;;4977263;28;20666;-55
2022/07/06 10:32:25;;;;;;;386.25;188.70;;;;;;;;;;4958819;28;20232;-55
2022/07/06 10:34:52;;;;;;;190.68;141.77;;;;;;;;;;4968406;28;20411;-55
2022/07/06 10:37:28;;;;;;;196.63;153.80;;;;;;;;;;4995749;28;20312;-54
2022/07/06 10:42:41;;;;;;;346.73;178.43;;;;;;;;;;4970132;28;20300;-55
2022/07/06 10:45:08;;;;;;;305.77;173.60;;;;;;;;;;4968771;28;20216;-55
2022/07/06 10:47:35;;;;;;;356.30;179.32;;;;;;;;;;4968106;28;20200;-55
2022/07/06 10:50:01;;;;;;;365.88;193.85;;;;;;;;;;4968856;28;20359;-55
2022/07/06 10:52:46;;;;;;;244.30;153.05;;;;;;;;;;4977275;28;21323;-55
2022/07/06 10:55:41;;;;;;;367.25;195.25;;;;;;;;;;4966349;28;20228;-55
2022/07/06 10:58:07;;;;;;;282.08;182.05;;;;;;;;;;4964910;28;21914;-54
2022/07/06 11:00:50;;;;;;;221.77;155.02;;;;;;;;;;4973213;28;20209;-55
2022/07/06 11:03:34;;;;;;;293.65;180.50;;;;;;;;;;4972809;28;20181;-56
2022/07/06 11:06:01;;;;;;;359.95;216.60;;;;;;;;;;4967800;28;20262;-55
2022/07/06 11:08:54;;;;;;;196.38;155.88;;;;;;;;;;4974561;28;20590;-56
2022/07/06 11:11:37;;;;;;;326.95;182.23;;;;;;;;;;4978219;28;20224;-55
2022/07/06 11:14:18;;;;;;;250.07;171.13;;;;;;;;;;4978852;28;20236;-56
2022/07/06 11:16:47;;;;;;;260.08;181.25;;;;;;;;;;4993356;28;20220;-55
2022/07/06 11:19:14;;;;;;;209.75;159.55;;;;;;;;;;4996233;28;20236;-55
2022/07/06 11:21:44;;;;;;;201.45;153.23;;;;;;;;;;4997353;28;20304;-55
2022/07/06 11:24:11;;;;;;;202.02;159.95;;;;;;;;;;4997287;28;20205;-55
2022/07/06 11:26:38;;;;;;;301.33;192.63;;;;;;;;;;4996348;28;20652;-55
2022/07/06 11:29:06;;;;;;;199.27;160.63;;;;;;;;;;4994709;28;20267;-55
2022/07/06 11:31:36;;;;;;;178.20;141.73;;;;;;;;;;4996976;28;20239;-55
2022/07/06 11:34:02;;;;;;;224.00;169.88;;;;;;;;;;4996796;28;20213;-54
2022/07/06 11:36:28;;;;;;;285.02;184.48;;;;;;;;;;4985356;28;20748;-54
2022/07/06 11:38:54;;;;;;;271.77;186.52;;;;;;;;;;4987072;28;20193;-51
2022/07/06 11:41:20;;;;;;;218.48;162.20;;;;;;;;;;4991009;28;20713;-51
2022/07/06 11:43:48;;;;;;;302.13;205.85;;;;;;;;;;4992775;28;20213;-51
2022/07/06 11:46:25;;;;;;;296.60;200.32;;;;;;;;;;4980122;28;20220;-51
2022/07/06 11:48:51;;;;;;;269.00;182.70;;;;;;;;;;4986895;28;20237;-51
2022/07/06 11:51:17;;;;;;;262.23;185.77;;;;;;;;;;4990838;28;20669;-51
2022/07/06 11:53:44;;;;;;;469.98;272.02;;;;;;;;;;4978151;28;20531;-51
2022/07/06 11:56:10;;;;;;;440.70;259.02;;;;;;;;;;4986598;28;20613;-51
2022/07/06 11:58:39;;;;;;;315.80;209.05;;;;;;;;;;4982928;28;20259;-51
2022/07/06 12:01:05;;;;;;;299.23;220.00;;;;;;;;;;4974243;28;20505;-51
2022/07/06 12:03:32;;;;;;;317.33;213.32;;;;;;;;;;4977452;28;20217;-51
2022/07/06 12:05:58;;;;;;;292.33;206.20;;;;;;;;;;4981485;28;20225;-52
2022/07/06 12:08:24;;;;;;;302.77;219.77;;;;;;;;;;4983764;28;20344;-51
2022/07/06 12:10:50;;;;;;;347.73;234.77;;;;;;;;;;4979062;28;20214;-52
2022/07/06 12:13:16;;;;;;;441.17;280.48;;;;;;;;;;4978024;28;20243;-51
2022/07/06 12:15:42;;;;;;;460.67;280.92;;;;;;;;;;4976054;28;20213;-52
2022/07/06 12:18:08;;;;;;;265.98;205.25;;;;;;;;;;4982314;28;20973;-51
2022/07/06 12:20:35;;;;;;;251.63;204.25;;;;;;;;;;4984194;28;20642;-51
2022/07/06 12:23:02;;;;;;;364.30;242.18;;;;;;;;;;4981207;28;20213;-51
2022/07/06 12:25:31;;;;;;;280.92;197.13;;;;;;;;;;4977129;28;20320;-52
2022/07/06 12:27:58;;;;;;;234.95;172.63;;;;;;;;;;4986116;28;20221;-52
2022/07/06 12:30:23;;;;;;;285.42;189.40;;;;;;;;;;4989251;28;20235;-51
2022/07/06 12:33:08;;;;;;;373.45;208.88;;;;;;;;;;4977158;28;20184;-52
2022/07/06 12:35:34;;;;;;;381.30;216.93;;;;;;;;;;4972778;28;20215;-51
2022/07/06 12:38:00;;;;;;;254.27;190.55;;;;;;;;;;4988228;28;20623;-51
2022/07/06 12:40:31;;;;;;;312.73;198.13;;;;;;;;;;4979086;28;20212;-52
2022/07/06 12:42:57;;;;;;;378.40;217.35;;;;;;;;;;4984030;28;20221;-52
2022/07/06 12:45:29;;;;;;;275.05;177.77;;;;;;;;;;4987353;28;20268;-51
2022/07/06 12:48:02;;;;;;;307.52;210.25;;;;;;;;;;4987883;28;20227;-51
2022/07/06 12:50:32;;;;;;;418.55;254.68;;;;;;;;;;4974056;28;20233;-51
2022/07/06 12:52:59;;;;;;;340.85;215.32;;;;;;;;;;4981958;28;20227;-51
2022/07/06 12:55:28;;;;;;;299.45;204.73;;;;;;;;;;4981862;28;20244;-52
2022/07/06 12:57:55;;;;;;;234.32;179.48;;;;;;;;;;4989190;28;20222;-51
2022/07/06 13:00:21;;;;;;;341.25;224.25;;;;;;;;;;4975039;28;20224;-51
2022/07/06 13:02:55;;;;;;;305.23;204.52;;;;;;;;;;4984296;28;20185;-52
2022/07/06 13:05:29;;;;;;;411.33;233.88;;;;;;;;;;4987887;28;20278;-51
2022/07/06 13:07:55;;;;;;;395.58;231.38;;;;;;;;;;4972179;28;20717;-52
2022/07/06 13:10:22;;;;;;;348.00;223.25;;;;;;;;;;4978116;28;20621;-51
2022/07/06 13:12:48;;;;;;;355.52;214.88;;;;;;;;;;4968748;28;20240;-52
2022/07/06 13:15:14;;;;;;;189.30;168.93;;;;;;;;;;4988029;28;20279;-53
2022/07/06 13:17:40;;;;;;;185.18;164.10;;;;;;;;;;5010367;28;20272;-52
2022/07/06 13:20:07;;;;;;;232.70;186.38;;;;;;;;;;5010029;28;20220;-52
2022/07/06 13:22:33;;;;;;;211.07;179.48;;;;;;;;;;5010251;28;20712;-52
2022/07/06 13:24:59;;;;;;;213.65;178.27;;;;;;;;;;5010112;28;20229;-52
2022/07/06 13:27:25;;;;;;;242.13;192.10;;;;;;;;;;5009799;28;20212;-52
2022/07/06 13:29:52;;;;;;;240.55;191.68;;;;;;;;;;5009856;28;20279;-52
2022/07/06 13:32:17;;;;;;;199.50;176.70;;;;;;;;;;5009689;28;20270;-52
2022/07/06 13:34:43;;;;;;;173.90;156.48;;;;;;;;;;5009280;28;20584;-52
2022/07/06 13:37:09;;;;;;;199.23;178.40;;;;;;;;;;5008929;28;20255;-52
2022/07/06 13:39:36;;;;;;;205.63;183.82;;;;;;;;;;5009275;28;20244;-52
2022/07/06 13:42:02;;;;;;;198.90;177.68;;;;;;;;;;5009416;28;20204;-52
2022/07/06 13:44:28;;;;;;;197.35;168.95;;;;;;;;;;5009993;28;20197;-52
2022/07/06 13:46:54;;;;;;;179.43;160.40;;;;;;;;;;5009629;28;20217;-52
2022/07/06 13:49:20;;;;;;;179.23;160.38;;;;;;;;;;5009560;28;20708;-52
2022/07/06 13:51:47;;;;;;;183.73;165.40;;;;;;;;;;5009530;28;20205;-52
2022/07/06 13:54:13;;;;;;;190.90;169.43;;;;;;;;;;5009171;28;20180;-52
2022/07/06 13:56:39;;;;;;;183.20;163.27;;;;;;;;;;5024516;28;20193;-51
2022/07/06 13:59:05;;;;;;;177.43;155.48;;;;;;;;;;5009687;28;20224;-51
2022/07/06 14:01:31;;;;;;;178.18;158.80;;;;;;;;;;5009225;28;20220;-51
2022/07/06 14:03:57;;;;;;;164.70;145.40;;;;;;;;;;5009303;28;20225;-52